Z E U S — IFWZ — position and weather

sailwx.info

Track history (hours):
 
Tides and Currents Weather Stations Pressure Air Temp Water Temp Dewpoint Dewpoint Depression Visibility Wind Speed Wind Dir Waves Ship Positions

Z E U S

Last reported at 2015-Jun-30 13:33 UTC. Time now 2015-Jun-30 14:30 UTC.
Position N 38°01' E 012°31'.

Length 53 m; draft 2.5 m.

Type: Ship (hazmat cat A). MMSI: 247072100.

Date/timePositionNaut miles runAvg speedWind from/ knotsBaromVisibWave heightAir tempDewpointWater temp
2015-Jun-30 13:33N 38°01' E 012°31'0 0.0
2015-Jun-30 12:33N 38°01' E 012°31'1 0.9
2015-Jun-30 11:33N 38°00' E 012°30'9 9.3
2015-Jun-30 10:33N 37°56' E 012°20'4 3.7
2015-Jun-30 09:33N 37°58' E 012°15'8 8.4
2015-Jun-30 08:33N 37°58' E 012°05'1 0.7
2015-Jun-30 07:33N 37°58' E 012°05'1110.6
2015-Jun-30 06:33N 37°58' E 012°19'6 5.8
2015-Jun-30 05:33N 37°59' E 012°26'4 4.4
2015-Jun-30 04:33N 38°01' E 012°31'0 0.0
2015-Jun-29 14:33N 38°01' E 012°31'0 0.0
2015-Jun-29 13:33N 38°01' E 012°31'6 5.5
2015-Jun-29 12:33N 37°58' E 012°25'5 4.6
2015-Jun-29 11:33N 37°56' E 012°20'0 0.0
2015-Jun-29 10:33N 37°56' E 012°19'1010.1
2015-Jun-29 09:33N 38°01' E 012°31'1 1.0
2015-Jun-29 08:33N 38°00' E 012°30'9 9.0
2015-Jun-29 07:33N 37°56' E 012°20'0 0.0
2015-Jun-29 06:33N 37°56' E 012°20'5 5.2
2015-Jun-29 05:33N 37°59' E 012°25'5 4.9
2015-Jun-29 04:33N 38°01' E 012°31'0 0.0
2015-Jun-27 13:16N 38°01' E 012°31'3 4.7
2015-Jun-27 12:33N 37°59' E 012°27'7 6.8
2015-Jun-27 11:33N 37°56' E 012°19'0 0.4
2015-Jun-27 10:33N 37°56' E 012°20'10 9.9
2015-Jun-27 09:33N 38°01' E 012°31'4 4.3
2015-Jun-27 08:33N 37°59' E 012°26'6 5.9
2015-Jun-27 07:33N 37°56' E 012°20'0 0.1
2015-Jun-27 06:33N 37°56' E 012°19'6 6.2
2015-Jun-27 05:33N 37°59' E 012°26'4 4.0
2015-Jun-27 04:33N 38°01' E 012°31'0 0.0
2015-Jun-26 14:06N 38°01' E 012°31'0 0.0
2015-Jun-26 13:33N 38°01' E 012°31'0 0.0
2015-Jun-26 12:33N 38°01' E 012°31'5 5.1
2015-Jun-26 11:33N 37°58' E 012°25'5 5.0
2015-Jun-26 10:33N 37°56' E 012°20'5 4.9
2015-Jun-26 09:31N 37°58' E 012°14'7 7.2
2015-Jun-26 08:33N 37°58' E 012°05'2 1.6
2015-Jun-26 07:30N 37°57' E 012°07'19 7.9
2015-Jun-26 05:05N 38°01' E 012°31'0 0.4
2015-Jun-26 04:33N 38°01' E 012°31'0 0.0
2015-Jun-25 13:33N 38°01' E 012°31'3 3.4
2015-Jun-25 12:33N 37°59' E 012°27'7 6.7
2015-Jun-25 11:33N 37°56' E 012°20'0 0.0
2015-Jun-25 10:33N 37°56' E 012°20'1010.1
2015-Jun-25 09:33N 38°01' E 012°31'3 2.6
2015-Jun-25 08:33N 37°59' E 012°28'8 7.5
2015-Jun-25 07:33N 37°56' E 012°20'2 2.1
2015-Jun-25 06:33N 37°58' E 012°20'4 4.2
2015-Jun-25 05:33N 37°58' E 012°25'5 4.9
2015-Jun-25 04:33N 38°01' E 012°31'0 0.0
2015-Jun-24 14:27N 38°01' E 012°31'0 0.0
2015-Jun-24 13:33N 38°01' E 012°31'3 3.5
2015-Jun-24 12:33N 37°59' E 012°27'7 6.6
2015-Jun-24 11:33N 37°56' E 012°20'2 1.8
2015-Jun-24 10:33N 37°57' E 012°21'8 8.3
2015-Jun-24 09:33N 38°01' E 012°31'1 0.7
2015-Jun-24 08:33N 38°00' E 012°30'9 9.5
2015-Jun-24 07:33N 37°56' E 012°20'0 0.0
2015-Jun-24 06:33N 37°56' E 012°20'5 5.2
2015-Jun-24 05:33N 37°59' E 012°25'5 4.9
2015-Jun-24 04:33N 38°01' E 012°31'0 0.0
2015-Jun-22 14:03N 38°01' E 012°31'0 0.0
2015-Jun-22 13:33N 38°01' E 012°31'3 2.7
2015-Jun-22 12:33N 37°59' E 012°28'7 7.5
2015-Jun-22 11:33N 37°56' E 012°20'0 0.0
2015-Jun-22 10:33N 37°56' E 012°20'10 9.9
2015-Jun-22 09:33N 38°01' E 012°30'0 0.4
2015-Jun-22 08:33N 38°00' E 012°30'10 9.5
2015-Jun-22 07:33N 37°56' E 012°19'3 3.0
2015-Jun-22 06:33N 37°59' E 012°20'4 3.7
2015-Jun-22 05:32N 37°58' E 012°25'5 5.1
2015-Jun-22 04:33N 38°01' E 012°31'  
Track history (hours):
 
Tides and Currents Weather Stations Pressure Air Temp Water Temp Dewpoint Dewpoint Depression Visibility Wind Speed Wind Dir Waves Ship Positions

Z E U S

Last reported at 2015-Jun-30 13:33 UTC. Time now 2015-Jun-30 14:30 UTC.
Position N 38°01' E 012°31'.

Length 53 m; draft 2.5 m.

Type: Ship (hazmat cat A). MMSI: 247072100.

Date/timePositionNaut miles runAvg speedWind from/ knotsBaromVisibWave heightAir tempDewpointWater temp
2015-Jun-30 13:33N 38°01' E 012°31'0 0.0
2015-Jun-30 12:33N 38°01' E 012°31'1 0.9
2015-Jun-30 11:33N 38°00' E 012°30'9 9.3
2015-Jun-30 10:33N 37°56' E 012°20'4 3.7
2015-Jun-30 09:33N 37°58' E 012°15'8 8.4
2015-Jun-30 08:33N 37°58' E 012°05'1 0.7
2015-Jun-30 07:33N 37°58' E 012°05'1110.6
2015-Jun-30 06:33N 37°58' E 012°19'6 5.8
2015-Jun-30 05:33N 37°59' E 012°26'4 4.4
2015-Jun-30 04:33N 38°01' E 012°31'0 0.0
2015-Jun-29 14:33N 38°01' E 012°31'0 0.0
2015-Jun-29 13:33N 38°01' E 012°31'6 5.5
2015-Jun-29 12:33N 37°58' E 012°25'5 4.6
2015-Jun-29 11:33N 37°56' E 012°20'0 0.0
2015-Jun-29 10:33N 37°56' E 012°19'1010.1
2015-Jun-29 09:33N 38°01' E 012°31'1 1.0
2015-Jun-29 08:33N 38°00' E 012°30'9 9.0
2015-Jun-29 07:33N 37°56' E 012°20'0 0.0
2015-Jun-29 06:33N 37°56' E 012°20'5 5.2
2015-Jun-29 05:33N 37°59' E 012°25'5 4.9
2015-Jun-29 04:33N 38°01' E 012°31'0 0.0
2015-Jun-27 13:16N 38°01' E 012°31'3 4.7
2015-Jun-27 12:33N 37°59' E 012°27'7 6.8
2015-Jun-27 11:33N 37°56' E 012°19'0 0.4
2015-Jun-27 10:33N 37°56' E 012°20'10 9.9
2015-Jun-27 09:33N 38°01' E 012°31'4 4.3
2015-Jun-27 08:33N 37°59' E 012°26'6 5.9
2015-Jun-27 07:33N 37°56' E 012°20'0 0.1
2015-Jun-27 06:33N 37°56' E 012°19'6 6.2
2015-Jun-27 05:33N 37°59' E 012°26'4 4.0
2015-Jun-27 04:33N 38°01' E 012°31'0 0.0
2015-Jun-26 14:06N 38°01' E 012°31'0 0.0
2015-Jun-26 13:33N 38°01' E 012°31'0 0.0
2015-Jun-26 12:33N 38°01' E 012°31'5 5.1
2015-Jun-26 11:33N 37°58' E 012°25'5 5.0
2015-Jun-26 10:33N 37°56' E 012°20'5 4.9
2015-Jun-26 09:31N 37°58' E 012°14'7 7.2
2015-Jun-26 08:33N 37°58' E 012°05'2 1.6
2015-Jun-26 07:30N 37°57' E 012°07'19 7.9
2015-Jun-26 05:05N 38°01' E 012°31'0 0.4
2015-Jun-26 04:33N 38°01' E 012°31'0 0.0
2015-Jun-25 13:33N 38°01' E 012°31'3 3.4
2015-Jun-25 12:33N 37°59' E 012°27'7 6.7
2015-Jun-25 11:33N 37°56' E 012°20'0 0.0
2015-Jun-25 10:33N 37°56' E 012°20'1010.1
2015-Jun-25 09:33N 38°01' E 012°31'3 2.6
2015-Jun-25 08:33N 37°59' E 012°28'8 7.5
2015-Jun-25 07:33N 37°56' E 012°20'2 2.1
2015-Jun-25 06:33N 37°58' E 012°20'4 4.2
2015-Jun-25 05:33N 37°58' E 012°25'5 4.9
2015-Jun-25 04:33N 38°01' E 012°31'0 0.0
2015-Jun-24 14:27N 38°01' E 012°31'0 0.0
2015-Jun-24 13:33N 38°01' E 012°31'3 3.5
2015-Jun-24 12:33N 37°59' E 012°27'7 6.6
2015-Jun-24 11:33N 37°56' E 012°20'2 1.8
2015-Jun-24 10:33N 37°57' E 012°21'8 8.3
2015-Jun-24 09:33N 38°01' E 012°31'1 0.7
2015-Jun-24 08:33N 38°00' E 012°30'9 9.5
2015-Jun-24 07:33N 37°56' E 012°20'0 0.0
2015-Jun-24 06:33N 37°56' E 012°20'5 5.2
2015-Jun-24 05:33N 37°59' E 012°25'5 4.9
2015-Jun-24 04:33N 38°01' E 012°31'0 0.0
2015-Jun-22 14:03N 38°01' E 012°31'0 0.0
2015-Jun-22 13:33N 38°01' E 012°31'3 2.7
2015-Jun-22 12:33N 37°59' E 012°28'7 7.5
2015-Jun-22 11:33N 37°56' E 012°20'0 0.0
2015-Jun-22 10:33N 37°56' E 012°20'10 9.9
2015-Jun-22 09:33N 38°01' E 012°30'0 0.4
2015-Jun-22 08:33N 38°00' E 012°30'10 9.5
2015-Jun-22 07:33N 37°56' E 012°19'3 3.0
2015-Jun-22 06:33N 37°59' E 012°20'4 3.7
2015-Jun-22 05:32N 37°58' E 012°25'5 5.1
2015-Jun-22 04:33N 38°01' E 012°31'  

Dump ship's entire track history